Time;durP1;ratioP1;P1;durP2;ratioP2;P2;SDS_P1;SDS_P2;PMS_P1;PMS_P2;Temp;Humidity;BMP_temperature;BMP_pressure;BME280_temperature;BME280_humidity;BME280_pressure;Samples;Min_cycle;Max_cycle;Signal;HPM_P1;HPM_P2
2021/05/05 00:01:56;;;;;;;6.63;1.55;;;;;;;;;;3616931;39;20059;-59
2021/05/05 00:04:21;;;;;;;2.88;1.30;;;;;;;;;;3615711;39;20042;-59
2021/05/05 00:06:47;;;;;;;4.72;1.42;;;;;;;;;;3616993;39;20047;-59
2021/05/05 00:09:13;;;;;;;3.25;1.33;;;;;;;;;;3616840;39;20050;-59
2021/05/05 00:11:40;;;;;;;4.88;1.58;;;;;;;;;;3606704;39;20066;-59
2021/05/05 00:14:11;;;;;;;3.22;1.33;;;;;;;;;;3616701;39;20372;-59
2021/05/05 00:16:37;;;;;;;4.18;1.63;;;;;;;;;;3616726;39;20035;-59
2021/05/05 00:19:03;;;;;;;4.65;1.40;;;;;;;;;;3617171;39;20030;-59
2021/05/05 00:21:29;;;;;;;5.18;1.67;;;;;;;;;;3615702;39;20507;-59
2021/05/05 00:23:54;;;;;;;14.02;2.22;;;;;;;;;;3616425;39;20023;-59
2021/05/05 00:26:20;;;;;;;3.25;1.20;;;;;;;;;;3617653;39;20258;-59
2021/05/05 00:28:46;;;;;;;5.05;1.55;;;;;;;;;;3617121;39;20046;-59
2021/05/05 00:31:11;;;;;;;3.80;1.40;;;;;;;;;;3616608;39;20038;-59
2021/05/05 00:33:37;;;;;;;3.35;1.20;;;;;;;;;;3607134;39;20036;-58
2021/05/05 00:36:02;;;;;;;3.25;1.40;;;;;;;;;;3616220;39;20027;-58
2021/05/05 00:38:27;;;;;;;3.38;1.40;;;;;;;;;;3607054;39;20033;-58
2021/05/05 00:40:53;;;;;;;6.80;2.00;;;;;;;;;;3616288;39;20119;-59
2021/05/05 00:43:18;;;;;;;2.92;1.30;;;;;;;;;;3616660;39;20036;-59
2021/05/05 00:45:44;;;;;;;3.65;1.48;;;;;;;;;;3615412;39;20035;-58
2021/05/05 00:48:09;;;;;;;3.72;1.60;;;;;;;;;;3616743;39;20105;-59
2021/05/05 00:50:35;;;;;;;4.03;1.30;;;;;;;;;;3616327;39;20055;-59
2021/05/05 00:53:00;;;;;;;5.53;1.92;;;;;;;;;;3615237;39;20023;-59
2021/05/05 00:55:26;;;;;;;4.25;1.58;;;;;;;;;;3615626;39;20123;-59
2021/05/05 00:57:51;;;;;;;4.90;1.20;;;;;;;;;;3616582;39;20042;-59
2021/05/05 01:00:21;;;;;;;4.47;1.70;;;;;;;;;;3616922;39;20123;-59
2021/05/05 01:02:46;;;;;;;3.60;1.27;;;;;;;;;;3607012;39;20033;-58
2021/05/05 01:05:13;;;;;;;5.38;1.60;;;;;;;;;;3616569;39;20043;-58
2021/05/05 01:07:39;;;;;;;5.20;1.80;;;;;;;;;;3606891;39;20039;-58
2021/05/05 01:10:08;;;;;;;4.68;1.63;;;;;;;;;;3606838;39;20045;-59
2021/05/05 01:12:33;;;;;;;3.80;1.45;;;;;;;;;;3615163;39;20023;-59
2021/05/05 01:14:59;;;;;;;4.88;1.38;;;;;;;;;;3607147;39;20043;-59
2021/05/05 01:17:25;;;;;;;6.03;1.75;;;;;;;;;;3616271;39;20039;-59
2021/05/05 01:19:50;;;;;;;7.65;2.33;;;;;;;;;;3616443;39;20127;-59
2021/05/05 01:22:16;;;;;;;6.85;2.03;;;;;;;;;;3616136;39;20055;-58
2021/05/05 01:24:42;;;;;;;5.22;1.70;;;;;;;;;;3606837;39;20257;-59
2021/05/05 01:27:08;;;;;;;7.00;1.55;;;;;;;;;;3606839;39;20119;-59
2021/05/05 01:29:38;;;;;;;4.93;1.92;;;;;;;;;;3615470;39;20081;-59
2021/05/05 01:32:04;;;;;;;4.35;1.35;;;;;;;;;;3615584;39;20031;-59
2021/05/05 01:34:30;;;;;;;5.72;1.45;;;;;;;;;;3617733;39;20031;-59
2021/05/05 01:36:56;;;;;;;6.80;1.75;;;;;;;;;;3618005;39;20035;-59
2021/05/05 01:39:21;;;;;;;8.75;3.63;;;;;;;;;;3617010;39;21055;-59
2021/05/05 01:41:47;;;;;;;4.30;1.70;;;;;;;;;;3618168;39;20063;-58
2021/05/05 01:44:13;;;;;;;6.25;1.70;;;;;;;;;;3618364;39;20148;-58
2021/05/05 01:46:46;;;;;;;6.15;1.50;;;;;;;;;;3617859;39;20066;-59
2021/05/05 01:49:19;;;;;;;4.32;1.40;;;;;;;;;;3617270;39;20414;-58
2021/05/05 01:51:44;;;;;;;5.25;2.00;;;;;;;;;;3617449;39;20031;-58
2021/05/05 01:54:10;;;;;;;4.60;1.50;;;;;;;;;;3618116;39;20377;-59
2021/05/05 01:56:36;;;;;;;4.72;1.58;;;;;;;;;;3617347;39;20062;-59
2021/05/05 01:59:01;;;;;;;7.70;2.00;;;;;;;;;;3618031;39;20539;-59
2021/05/05 02:01:27;;;;;;;3.05;1.50;;;;;;;;;;3608264;39;20046;-59
2021/05/05 02:03:52;;;;;;;7.65;1.65;;;;;;;;;;3617693;39;20062;-59
2021/05/05 02:06:17;;;;;;;5.90;1.83;;;;;;;;;;3616939;39;20039;-59
2021/05/05 02:08:43;;;;;;;8.43;1.83;;;;;;;;;;3617306;39;20037;-59
2021/05/05 02:11:08;;;;;;;7.07;2.05;;;;;;;;;;3617640;39;20390;-59
2021/05/05 02:13:34;;;;;;;3.95;1.42;;;;;;;;;;3617503;39;20043;-59
2021/05/05 02:15:59;;;;;;;4.55;1.35;;;;;;;;;;3616800;39;20279;-59
2021/05/05 02:18:25;;;;;;;4.70;1.50;;;;;;;;;;3617492;39;20153;-59
2021/05/05 02:20:51;;;;;;;4.07;1.27;;;;;;;;;;3617448;39;20041;-59
2021/05/05 02:23:16;;;;;;;9.18;1.92;;;;;;;;;;3617356;39;20035;-59
2021/05/05 02:25:42;;;;;;;8.55;1.70;;;;;;;;;;3616752;39;20047;-59
2021/05/05 02:28:09;;;;;;;4.75;2.00;;;;;;;;;;3617408;39;20035;-59
2021/05/05 02:30:34;;;;;;;4.35;1.58;;;;;;;;;;3617208;39;20045;-59
2021/05/05 02:33:00;;;;;;;6.43;1.55;;;;;;;;;;3612753;39;20043;-59
2021/05/05 02:35:26;;;;;;;4.65;1.70;;;;;;;;;;3615626;39;20054;-59
2021/05/05 02:37:51;;;;;;;6.80;1.80;;;;;;;;;;3617488;39;20047;-59
2021/05/05 02:40:16;;;;;;;7.28;1.80;;;;;;;;;;3617630;39;20035;-59
2021/05/05 02:42:43;;;;;;;7.40;2.03;;;;;;;;;;3616188;39;20238;-59
2021/05/05 02:45:09;;;;;;;5.63;1.63;;;;;;;;;;3607334;39;20345;-59
2021/05/05 02:47:34;;;;;;;7.63;1.80;;;;;;;;;;3617036;39;20047;-58
2021/05/05 02:50:00;;;;;;;6.70;1.90;;;;;;;;;;3617064;39;20034;-58
2021/05/05 02:52:25;;;;;;;5.60;1.60;;;;;;;;;;3616899;39;20039;-58
2021/05/05 02:54:51;;;;;;;6.50;1.70;;;;;;;;;;3617290;39;20385;-58
2021/05/05 02:57:16;;;;;;;9.43;2.10;;;;;;;;;;3617529;39;20038;-58
2021/05/05 02:59:41;;;;;;;3.60;1.42;;;;;;;;;;3617297;39;20031;-58
2021/05/05 03:02:07;;;;;;;4.47;1.88;;;;;;;;;;3598967;39;20058;-59
2021/05/05 03:04:33;;;;;;;4.82;1.77;;;;;;;;;;3607835;39;20035;-59
2021/05/05 03:06:59;;;;;;;4.30;1.80;;;;;;;;;;3617213;39;20023;-59
2021/05/05 03:09:26;;;;;;;8.82;2.17;;;;;;;;;;3617065;39;20039;-59
2021/05/05 03:11:56;;;;;;;5.93;1.67;;;;;;;;;;3616092;39;20031;-59
2021/05/05 03:14:25;;;;;;;7.15;1.60;;;;;;;;;;3616979;39;20043;-59
2021/05/05 03:16:56;;;;;;;9.48;2.30;;;;;;;;;;3616817;39;20035;-59
2021/05/05 03:19:21;;;;;;;7.38;1.85;;;;;;;;;;3616002;39;20047;-59
2021/05/05 03:21:47;;;;;;;5.82;1.80;;;;;;;;;;3617096;39;20132;-58
2021/05/05 03:24:13;;;;;;;6.82;2.40;;;;;;;;;;3617135;39;20139;-58
2021/05/05 03:26:38;;;;;;;9.77;1.88;;;;;;;;;;3617058;39;20057;-58
2021/05/05 03:29:04;;;;;;;7.40;2.17;;;;;;;;;;3616402;39;20358;-58
2021/05/05 03:31:30;;;;;;;6.57;2.10;;;;;;;;;;3616825;39;20043;-58
2021/05/05 03:33:55;;;;;;;5.45;1.55;;;;;;;;;;3615328;39;20035;-58
2021/05/05 03:36:21;;;;;;;7.85;2.20;;;;;;;;;;3617000;39;20135;-58
2021/05/05 03:38:46;;;;;;;6.28;2.33;;;;;;;;;;3616904;39;20034;-58
2021/05/05 03:41:12;;;;;;;4.80;1.83;;;;;;;;;;3607766;39;20076;-58
2021/05/05 03:43:37;;;;;;;11.25;1.85;;;;;;;;;;3615897;39;20358;-59
2021/05/05 03:46:03;;;;;;;5.43;1.98;;;;;;;;;;3616846;39;20066;-58
2021/05/05 03:48:29;;;;;;;7.03;1.90;;;;;;;;;;3616760;39;20108;-58
2021/05/05 03:50:56;;;;;;;6.65;2.25;;;;;;;;;;3616060;39;20075;-58
2021/05/05 03:53:21;;;;;;;12.55;2.10;;;;;;;;;;3616278;39;20031;-58
2021/05/05 03:55:47;;;;;;;5.78;1.40;;;;;;;;;;3607396;39;20055;-58
2021/05/05 03:58:12;;;;;;;7.55;1.95;;;;;;;;;;3614306;39;20083;-58
2021/05/05 04:00:38;;;;;;;11.55;2.40;;;;;;;;;;3616219;39;20043;-58
2021/05/05 04:03:03;;;;;;;6.05;1.73;;;;;;;;;;3616820;39;20031;-58
2021/05/05 04:05:29;;;;;;;9.13;2.00;;;;;;;;;;3616929;39;20031;-58
2021/05/05 04:07:55;;;;;;;8.35;1.60;;;;;;;;;;3607082;39;20306;-58
2021/05/05 04:10:20;;;;;;;3.83;1.40;;;;;;;;;;3616692;39;20067;-58
2021/05/05 04:12:46;;;;;;;4.75;1.80;;;;;;;;;;3616767;39;20031;-58
2021/05/05 04:15:12;;;;;;;11.30;2.03;;;;;;;;;;3607627;39;20043;-58
2021/05/05 04:17:37;;;;;;;4.10;1.27;;;;;;;;;;3616070;39;20097;-57
2021/05/05 04:20:03;;;;;;;6.45;2.47;;;;;;;;;;3617063;39;20058;-57
2021/05/05 04:22:29;;;;;;;8.73;2.22;;;;;;;;;;3607152;39;20046;-57
2021/05/05 04:24:55;;;;;;;6.55;1.70;;;;;;;;;;3616736;39;20031;-58
2021/05/05 04:27:20;;;;;;;7.25;2.08;;;;;;;;;;3605552;39;20113;-58
2021/05/05 04:29:46;;;;;;;7.10;1.98;;;;;;;;;;3617291;39;20067;-58
2021/05/05 04:32:12;;;;;;;6.50;2.30;;;;;;;;;;3616741;39;20107;-58
2021/05/05 04:34:38;;;;;;;9.35;2.42;;;;;;;;;;3615084;39;20043;-58
2021/05/05 04:37:06;;;;;;;8.43;2.20;;;;;;;;;;3616749;39;20362;-58
2021/05/05 04:39:36;;;;;;;7.07;1.58;;;;;;;;;;3616375;39;20028;-58
2021/05/05 04:42:04;;;;;;;6.32;2.20;;;;;;;;;;3615085;39;20075;-58
2021/05/05 04:44:29;;;;;;;7.63;2.08;;;;;;;;;;3616109;39;20067;-58
2021/05/05 04:46:55;;;;;;;8.70;1.55;;;;;;;;;;3616490;39;20042;-59
2021/05/05 04:49:20;;;;;;;4.00;1.58;;;;;;;;;;3616648;39;20031;-58
2021/05/05 04:51:46;;;;;;;6.10;1.95;;;;;;;;;;3615679;39;20465;-59
2021/05/05 04:54:11;;;;;;;5.97;1.70;;;;;;;;;;3616683;39;20043;-59
2021/05/05 04:56:36;;;;;;;7.82;2.17;;;;;;;;;;3615682;39;20051;-58
2021/05/05 04:59:03;;;;;;;7.63;2.08;;;;;;;;;;3616647;39;20040;-58
2021/05/05 05:01:29;;;;;;;6.38;2.05;;;;;;;;;;3616595;39;20043;-58
2021/05/05 05:03:55;;;;;;;10.57;2.22;;;;;;;;;;3616403;39;20027;-58
2021/05/05 05:06:20;;;;;;;6.00;1.85;;;;;;;;;;3613786;39;20338;-58
2021/05/05 05:08:45;;;;;;;12.13;1.83;;;;;;;;;;3617766;39;20313;-58
2021/05/05 05:11:11;;;;;;;7.63;1.90;;;;;;;;;;3617369;39;20035;-58
2021/05/05 05:13:37;;;;;;;11.40;1.90;;;;;;;;;;3617855;39;20039;-58
2021/05/05 05:16:03;;;;;;;14.95;2.15;;;;;;;;;;3608141;39;20350;-58
2021/05/05 05:18:29;;;;;;;10.15;2.20;;;;;;;;;;3617048;39;20100;-58
2021/05/05 05:20:54;;;;;;;8.45;2.83;;;;;;;;;;3618164;39;20047;-58
2021/05/05 05:23:19;;;;;;;9.55;2.38;;;;;;;;;;3617767;39;20034;-58
2021/05/05 05:25:45;;;;;;;6.35;1.90;;;;;;;;;;3617649;39;20035;-58
2021/05/05 05:28:10;;;;;;;7.40;2.15;;;;;;;;;;3617838;39;20035;-57
2021/05/05 05:30:36;;;;;;;15.55;2.90;;;;;;;;;;3617418;39;20046;-58
2021/05/05 05:33:01;;;;;;;6.53;2.22;;;;;;;;;;3606811;39;20039;-59
2021/05/05 05:35:27;;;;;;;11.18;2.70;;;;;;;;;;3608661;39;20030;-59
2021/05/05 05:37:52;;;;;;;6.00;1.90;;;;;;;;;;3617768;39;20035;-58
2021/05/05 05:40:18;;;;;;;8.52;2.22;;;;;;;;;;3617257;39;20123;-58
2021/05/05 05:42:45;;;;;;;7.75;1.90;;;;;;;;;;3615877;39;20043;-58
2021/05/05 05:45:12;;;;;;;11.85;2.35;;;;;;;;;;3617074;39;20042;-58
2021/05/05 05:47:39;;;;;;;8.25;3.22;;;;;;;;;;3616724;39;20043;-58
2021/05/05 05:50:06;;;;;;;8.70;2.03;;;;;;;;;;3616708;39;20043;-58
2021/05/05 05:52:31;;;;;;;8.55;2.30;;;;;;;;;;3615828;39;20031;-58
2021/05/05 05:54:57;;;;;;;5.03;1.55;;;;;;;;;;3616196;39;20030;-59
2021/05/05 05:57:22;;;;;;;7.32;1.85;;;;;;;;;;3614508;39;20046;-58
2021/05/05 05:59:50;;;;;;;8.88;2.05;;;;;;;;;;3617528;39;20063;-58
2021/05/05 06:02:15;;;;;;;11.98;2.22;;;;;;;;;;3617772;39;20119;-58
2021/05/05 06:04:40;;;;;;;10.98;2.60;;;;;;;;;;3616962;39;20041;-58
2021/05/05 06:07:06;;;;;;;7.95;2.80;;;;;;;;;;3616971;39;20031;-59
2021/05/05 06:09:31;;;;;;;10.73;2.72;;;;;;;;;;3617491;39;20140;-57
2021/05/05 06:11:57;;;;;;;8.00;2.63;;;;;;;;;;3617771;39;20031;-58
2021/05/05 06:14:22;;;;;;;14.00;2.38;;;;;;;;;;3616909;39;20050;-58
2021/05/05 06:16:48;;;;;;;10.80;2.13;;;;;;;;;;3608375;39;20031;-56
2021/05/05 06:19:13;;;;;;;9.13;2.42;;;;;;;;;;3608332;39;20262;-58
2021/05/05 06:21:39;;;;;;;11.65;2.10;;;;;;;;;;3617523;39;20536;-58
2021/05/05 06:24:05;;;;;;;8.70;2.17;;;;;;;;;;3617086;39;20406;-58
2021/05/05 06:26:30;;;;;;;15.18;2.47;;;;;;;;;;3617549;39;20111;-58
2021/05/05 06:28:56;;;;;;;5.68;1.98;;;;;;;;;;3617625;39;20353;-58
2021/05/05 06:31:21;;;;;;;10.00;2.75;;;;;;;;;;3617629;39;20289;-57
2021/05/05 06:33:46;;;;;;;9.18;2.85;;;;;;;;;;3616910;39;20042;-57
2021/05/05 06:36:12;;;;;;;9.70;2.35;;;;;;;;;;3617437;39;20077;-58
2021/05/05 06:38:37;;;;;;;14.20;2.65;;;;;;;;;;3616994;39;20122;-58
2021/05/05 06:41:03;;;;;;;9.75;2.63;;;;;;;;;;3617225;39;20059;-58
2021/05/05 06:43:28;;;;;;;9.30;2.88;;;;;;;;;;3617115;39;20087;-58
2021/05/05 06:45:54;;;;;;;8.35;2.33;;;;;;;;;;3617387;39;20058;-58
2021/05/05 06:48:19;;;;;;;10.52;3.03;;;;;;;;;;3617926;39;20366;-57
2021/05/05 06:50:46;;;;;;;6.00;2.13;;;;;;;;;;3616866;39;20396;-59
2021/05/05 06:53:11;;;;;;;11.27;2.42;;;;;;;;;;3617597;39;20043;-59
2021/05/05 06:55:37;;;;;;;11.35;2.47;;;;;;;;;;3617141;39;20054;-57
2021/05/05 06:58:04;;;;;;;8.80;2.53;;;;;;;;;;3616498;39;20132;-58
2021/05/05 07:00:29;;;;;;;12.10;3.97;;;;;;;;;;3617417;39;20043;-57
2021/05/05 07:02:54;;;;;;;9.05;2.50;;;;;;;;;;3617377;39;20382;-57
2021/05/05 07:05:20;;;;;;;17.25;2.85;;;;;;;;;;3617340;39;20069;-56
2021/05/05 07:07:45;;;;;;;6.82;2.33;;;;;;;;;;3616810;39;20031;-57
2021/05/05 07:10:12;;;;;;;8.05;2.65;;;;;;;;;;3617276;39;20039;-58
2021/05/05 07:12:37;;;;;;;12.90;3.13;;;;;;;;;;3617384;39;20043;-57
2021/05/05 07:15:04;;;;;;;7.63;2.72;;;;;;;;;;3616485;39;20035;-57
2021/05/05 07:17:29;;;;;;;10.45;2.88;;;;;;;;;;3617390;39;20027;-58
2021/05/05 07:19:55;;;;;;;8.20;2.67;;;;;;;;;;3617041;39;20116;-58
2021/05/05 07:22:20;;;;;;;9.13;2.42;;;;;;;;;;3617119;39;20038;-58
2021/05/05 07:24:47;;;;;;;9.65;2.72;;;;;;;;;;3616499;39;20028;-57
2021/05/05 07:27:13;;;;;;;12.82;2.72;;;;;;;;;;3617415;39;20433;-58
2021/05/05 07:29:39;;;;;;;7.82;2.75;;;;;;;;;;3617161;39;20283;-58
2021/05/05 07:32:05;;;;;;;10.07;2.83;;;;;;;;;;3616826;39;20038;-59
2021/05/05 07:34:31;;;;;;;7.60;3.03;;;;;;;;;;3616588;39;20028;-58
2021/05/05 07:37:04;;;;;;;7.78;2.63;;;;;;;;;;3616894;39;20128;-58
2021/05/05 07:45:07;;;;;;;8.45;2.47;;;;;;;;;;3616818;39;20359;-56
2021/05/05 07:47:36;;;;;;;7.13;2.47;;;;;;;;;;3615747;39;20316;-57
2021/05/05 07:50:04;;;;;;;10.48;3.03;;;;;;;;;;3616361;39;20046;-59
2021/05/05 07:52:30;;;;;;;6.45;2.53;;;;;;;;;;3616226;39;20091;-59
2021/05/05 07:54:56;;;;;;;7.88;2.28;;;;;;;;;;3616774;39;20039;-58
2021/05/05 07:57:22;;;;;;;8.65;2.50;;;;;;;;;;3616728;39;20031;-58
2021/05/05 07:59:47;;;;;;;9.30;2.40;;;;;;;;;;3615885;39;20034;-59
2021/05/05 08:02:13;;;;;;;6.68;2.83;;;;;;;;;;3617132;39;20264;-59
2021/05/05 08:04:48;;;;;;;9.00;2.60;;;;;;;;;;3616663;39;20432;-60
2021/05/05 08:07:14;;;;;;;12.13;2.65;;;;;;;;;;3616161;39;20043;-60
2021/05/05 08:09:39;;;;;;;6.00;2.47;;;;;;;;;;3617059;39;20039;-57
2021/05/05 08:12:04;;;;;;;9.18;2.25;;;;;;;;;;3617035;39;20071;-59
2021/05/05 08:14:30;;;;;;;7.65;2.75;;;;;;;;;;3616468;39;20058;-59
2021/05/05 08:16:55;;;;;;;5.93;2.40;;;;;;;;;;3616131;39;20071;-58
2021/05/05 08:19:21;;;;;;;10.50;3.20;;;;;;;;;;3617004;39;20027;-56
2021/05/05 08:21:46;;;;;;;6.55;2.25;;;;;;;;;;3617008;39;20369;-57
2021/05/05 08:24:11;;;;;;;5.82;2.70;;;;;;;;;;3615947;39;20362;-57
2021/05/05 08:26:37;;;;;;;12.73;2.30;;;;;;;;;;3616012;39;20051;-56
2021/05/05 08:29:03;;;;;;;7.50;2.85;;;;;;;;;;3616191;39;20043;-57
2021/05/05 08:31:28;;;;;;;10.35;2.28;;;;;;;;;;3616533;39;20078;-58
2021/05/05 08:33:54;;;;;;;7.65;2.50;;;;;;;;;;3615913;39;20101;-57
2021/05/05 08:36:19;;;;;;;8.07;2.22;;;;;;;;;;3616834;39;20266;-57
2021/05/05 08:38:45;;;;;;;8.93;2.83;;;;;;;;;;3606855;39;20028;-58
2021/05/05 08:41:11;;;;;;;4.88;2.08;;;;;;;;;;3616171;39;20036;-57
2021/05/05 08:43:37;;;;;;;6.85;2.13;;;;;;;;;;3617251;39;20107;-60
2021/05/05 08:46:06;;;;;;;6.53;2.45;;;;;;;;;;3617817;39;20114;-56
2021/05/05 08:48:31;;;;;;;7.80;2.45;;;;;;;;;;3618057;39;20032;-56
2021/05/05 08:50:58;;;;;;;4.43;2.17;;;;;;;;;;3617574;39;20051;-58
2021/05/05 08:53:23;;;;;;;9.15;2.65;;;;;;;;;;3618114;39;20035;-57
2021/05/05 08:55:49;;;;;;;6.28;2.55;;;;;;;;;;3617925;39;20236;-58
2021/05/05 08:58:14;;;;;;;8.70;2.08;;;;;;;;;;3617970;39;20077;-57
2021/05/05 09:00:40;;;;;;;10.23;2.55;;;;;;;;;;3617369;39;20046;-57
2021/05/05 09:03:07;;;;;;;7.03;2.28;;;;;;;;;;3617986;39;20031;-56
2021/05/05 09:05:58;;;;;;;5.72;2.05;;;;;;;;;;3617844;39;20036;-57
2021/05/05 09:08:24;;;;;;;11.05;2.50;;;;;;;;;;3611355;39;20038;-57
2021/05/05 09:11:02;;;;;;;6.90;2.25;;;;;;;;;;3617514;39;20354;-58
2021/05/05 09:13:50;;;;;;;6.45;1.85;;;;;;;;;;3617082;39;20032;-58
2021/05/05 09:16:27;;;;;;;6.32;1.73;;;;;;;;;;3617753;39;20123;-58
2021/05/05 09:18:57;;;;;;;5.43;1.50;;;;;;;;;;3607082;39;20039;-60
2021/05/05 09:21:51;;;;;;;5.00;1.73;;;;;;;;;;3616567;39;20054;-61
2021/05/05 09:24:27;;;;;;;5.50;1.95;;;;;;;;;;3614969;39;20043;-58
2021/05/05 09:27:04;;;;;;;8.02;4.65;;;;;;;;;;3617453;39;20307;-58
2021/05/05 09:29:41;;;;;;;6.47;2.83;;;;;;;;;;3616683;39;20401;-58
2021/05/05 09:32:09;;;;;;;7.60;2.10;;;;;;;;;;3617068;39;20124;-58
2021/05/05 09:34:35;;;;;;;4.07;1.55;;;;;;;;;;3617153;39;20351;-58
2021/05/05 09:37:03;;;;;;;2.40;1.00;;;;;;;;;;3617197;39;20119;-58
2021/05/05 09:39:32;;;;;;;2.42;0.90;;;;;;;;;;3617583;39;20063;-58
2021/05/05 09:41:58;;;;;;;7.20;2.78;;;;;;;;;;3617560;39;20035;-59
2021/05/05 09:44:24;;;;;;;3.08;1.30;;;;;;;;;;3617525;39;20090;-58
2021/05/05 09:46:54;;;;;;;3.10;1.30;;;;;;;;;;3616854;39;20043;-58
2021/05/05 09:49:28;;;;;;;6.20;1.40;;;;;;;;;;3617349;39;20530;-58
2021/05/05 09:52:24;;;;;;;2.80;1.27;;;;;;;;;;3617352;39;20066;-58
2021/05/05 09:54:58;;;;;;;3.00;1.30;;;;;;;;;;3615427;39;20055;-58
2021/05/05 09:57:31;;;;;;;7.32;1.58;;;;;;;;;;3616153;39;20043;-58
2021/05/05 10:00:10;;;;;;;4.13;2.03;;;;;;;;;;3617790;39;20039;-59
2021/05/05 10:02:46;;;;;;;3.83;1.33;;;;;;;;;;3615831;39;20083;-58
2021/05/05 10:05:15;;;;;;;3.13;1.30;;;;;;;;;;3617733;39;20047;-58
2021/05/05 10:08:03;;;;;;;5.45;1.45;;;;;;;;;;3617419;39;20043;-58
2021/05/05 10:10:38;;;;;;;5.38;1.40;;;;;;;;;;3617062;39;20050;-58
2021/05/05 10:13:06;;;;;;;6.10;1.42;;;;;;;;;;3615947;39;20038;-60
2021/05/05 10:15:33;;;;;;;6.97;0.70;;;;;;;;;;3617040;39;20657;-59
2021/05/05 10:17:59;;;;;;;6.57;1.77;;;;;;;;;;3617640;39;20039;-57
2021/05/05 10:20:27;;;;;;;2.30;0.80;;;;;;;;;;3617324;39;20047;-57
2021/05/05 10:22:57;;;;;;;2.13;1.00;;;;;;;;;;3617320;39;20035;-57
2021/05/05 10:25:23;;;;;;;2.28;0.80;;;;;;;;;;3616423;39;20066;-59
2021/05/05 10:27:50;;;;;;;2.45;0.90;;;;;;;;;;3617271;39;20358;-58
2021/05/05 10:30:18;;;;;;;2.08;0.47;;;;;;;;;;3617285;39;20028;-56
2021/05/05 10:32:45;;;;;;;3.83;0.63;;;;;;;;;;3617409;39;20040;-58
2021/05/05 10:35:15;;;;;;;1.63;0.63;;;;;;;;;;3617378;39;20039;-57
2021/05/05 10:37:44;;;;;;;1.00;0.60;;;;;;;;;;3616668;39;20112;-56
2021/05/05 10:40:21;;;;;;;2.55;0.63;;;;;;;;;;3617639;39;20035;-57
2021/05/05 10:42:57;;;;;;;1.25;0.60;;;;;;;;;;3617420;39;20366;-58
2021/05/05 10:45:44;;;;;;;2.50;0.60;;;;;;;;;;3617131;39;20055;-57
2021/05/05 10:48:14;;;;;;;5.50;0.77;;;;;;;;;;3615725;39;20064;-57
2021/05/05 10:50:49;;;;;;;1.85;0.75;;;;;;;;;;3617167;39;20043;-58
2021/05/05 10:53:16;;;;;;;1.80;0.60;;;;;;;;;;3607438;39;20061;-59
2021/05/05 10:55:45;;;;;;;1.65;0.80;;;;;;;;;;3615341;39;20037;-58
2021/05/05 10:58:14;;;;;;;1.48;0.75;;;;;;;;;;3617346;39;20050;-58
2021/05/05 11:01:06;;;;;;;3.20;0.65;;;;;;;;;;3617379;39;20041;-56
2021/05/05 11:03:46;;;;;;;2.40;0.75;;;;;;;;;;3616251;39;20032;-58
2021/05/05 11:06:31;;;;;;;5.13;1.23;;;;;;;;;;3616629;39;20043;-58
2021/05/05 11:09:17;;;;;;;3.92;1.42;;;;;;;;;;3616940;39;20459;-57
2021/05/05 11:11:52;;;;;;;2.63;1.13;;;;;;;;;;3616159;39;20042;-58
2021/05/05 11:14:24;;;;;;;3.65;1.23;;;;;;;;;;3616687;39;20293;-57
2021/05/05 11:16:54;;;;;;;2.50;0.98;;;;;;;;;;3616378;39;20243;-58
2021/05/05 11:19:38;;;;;;;6.87;1.13;;;;;;;;;;3614443;39;20039;-57
2021/05/05 11:22:09;;;;;;;3.53;0.93;;;;;;;;;;3616208;39;20264;-57
2021/05/05 11:24:36;;;;;;;3.67;1.17;;;;;;;;;;3616618;39;20028;-57
2021/05/05 11:27:04;;;;;;;1.25;0.68;;;;;;;;;;3616953;39;20039;-57
2021/05/05 11:29:32;;;;;;;3.15;0.65;;;;;;;;;;3616329;39;20062;-58
2021/05/05 11:31:58;;;;;;;4.60;1.05;;;;;;;;;;3616555;39;20027;-57
2021/05/05 11:34:23;;;;;;;1.17;0.57;;;;;;;;;;3616602;39;20031;-58
2021/05/05 11:36:58;;;;;;;4.03;0.88;;;;;;;;;;3616047;39;20036;-58
2021/05/05 11:39:29;;;;;;;2.40;0.80;;;;;;;;;;3616694;39;20375;-57
2021/05/05 11:41:58;;;;;;;7.63;3.80;;;;;;;;;;3616416;39;20539;-58
2021/05/05 11:44:42;;;;;;;2.45;1.00;;;;;;;;;;3615559;39;20034;-58
2021/05/05 11:47:15;;;;;;;4.10;1.38;;;;;;;;;;3616156;39;20043;-57
2021/05/05 11:49:54;;;;;;;3.88;1.05;;;;;;;;;;3616531;39;20071;-58
2021/05/05 11:52:27;;;;;;;2.92;1.10;;;;;;;;;;3615941;39;20038;-57
2021/05/05 11:55:09;;;;;;;4.50;1.10;;;;;;;;;;3607098;39;20027;-58
2021/05/05 11:58:01;;;;;;;2.63;1.00;;;;;;;;;;3616166;39;20032;-57
2021/05/05 12:00:29;;;;;;;4.50;1.10;;;;;;;;;;3600088;39;20079;-56
2021/05/05 12:02:58;;;;;;;2.05;0.80;;;;;;;;;;3616690;39;20064;-58
2021/05/05 12:05:45;;;;;;;3.80;1.35;;;;;;;;;;3617365;39;20059;-58
2021/05/05 12:08:16;;;;;;;2.15;1.02;;;;;;;;;;3617343;39;20459;-57
2021/05/05 12:10:46;;;;;;;4.22;1.13;;;;;;;;;;3617366;39;20039;-55
2021/05/05 12:13:13;;;;;;;2.97;0.70;;;;;;;;;;3616525;39;20054;-59
2021/05/05 12:15:49;;;;;;;1.58;0.60;;;;;;;;;;3616420;39;20059;-60
2021/05/05 12:18:18;;;;;;;2.08;0.60;;;;;;;;;;3616392;39;20055;-57
2021/05/05 12:20:46;;;;;;;5.45;0.50;;;;;;;;;;3616134;39;20570;-56
2021/05/05 12:23:11;;;;;;;0.73;0.50;;;;;;;;;;3616834;39;20465;-56
2021/05/05 12:25:37;;;;;;;1.45;0.40;;;;;;;;;;3616735;39;20055;-57
2021/05/05 12:28:12;;;;;;;1.45;0.40;;;;;;;;;;3616173;39;20042;-57
2021/05/05 12:30:44;;;;;;;3.28;1.02;;;;;;;;;;3615855;39;20055;-58
2021/05/05 12:33:10;;;;;;;1.25;0.55;;;;;;;;;;3606435;39;20032;-58
2021/05/05 12:35:37;;;;;;;1.08;0.55;;;;;;;;;;3616567;39;20043;-57
2021/05/05 12:38:12;;;;;;;1.33;0.57;;;;;;;;;;3614832;39;20108;-59
2021/05/05 12:40:38;;;;;;;1.30;0.60;;;;;;;;;;3616563;39;20039;-54
2021/05/05 12:43:26;;;;;;;1.40;0.40;;;;;;;;;;3615822;39;20035;-58
2021/05/05 12:45:53;;;;;;;5.32;1.00;;;;;;;;;;3614564;39;20055;-59
2021/05/05 12:48:31;;;;;;;1.15;0.45;;;;;;;;;;3616346;39;20038;-59
2021/05/05 12:51:10;;;;;;;5.93;0.70;;;;;;;;;;3615791;39;20047;-60
2021/05/05 12:53:48;;;;;;;2.65;0.90;;;;;;;;;;3615120;39;20082;-60
2021/05/05 12:56:14;;;;;;;1.17;0.50;;;;;;;;;;3615296;39;20130;-62
2021/05/05 12:58:41;;;;;;;1.33;0.60;;;;;;;;;;3615667;39;20047;-68
2021/05/05 13:01:12;;;;;;;1.35;0.50;;;;;;;;;;3615641;39;20035;-60
2021/05/05 13:03:46;;;;;;;1.40;0.80;;;;;;;;;;3613796;39;20857;-60
2021/05/05 13:06:14;;;;;;;1.20;0.68;;;;;;;;;;3616207;39;20131;-60
2021/05/05 13:08:53;;;;;;;0.90;0.50;;;;;;;;;;3615905;39;20063;-59
2021/05/05 13:11:28;;;;;;;1.58;0.60;;;;;;;;;;3616229;39;20035;-63
2021/05/05 13:14:00;;;;;;;2.00;0.77;;;;;;;;;;3615422;39;20060;-60
2021/05/05 13:17:22;;;;;;;1.17;0.73;;;;;;;;;;3606815;39;20034;-60
2021/05/05 13:31:33;;;;;;;1.63;0.70;;;;;;;;;;3616315;39;20050;-60
2021/05/05 13:34:04;;;;;;;1.95;0.80;;;;;;;;;;3616586;39;20355;-60
2021/05/05 13:36:45;;;;;;;0.50;0.40;;;;;;;;;;3617708;39;20080;-60
2021/05/05 13:39:11;;;;;;;1.15;0.52;;;;;;;;;;3617215;39;20035;-60
2021/05/05 13:41:37;;;;;;;1.25;0.63;;;;;;;;;;3615458;39;20131;-60
2021/05/05 13:44:05;;;;;;;0.85;0.38;;;;;;;;;;3616516;39;20321;-59
2021/05/05 13:51:28;;;;;;;2.55;0.70;;;;;;;;;;3614795;39;20037;-60
2021/05/05 13:53:54;;;;;;;2.30;0.80;;;;;;;;;;3616895;39;20116;-60
2021/05/05 13:56:25;;;;;;;2.05;0.57;;;;;;;;;;3616410;39;20120;-60
2021/05/05 13:58:51;;;;;;;2.22;0.70;;;;;;;;;;3616951;39;20035;-59
2021/05/05 14:01:17;;;;;;;1.73;0.85;;;;;;;;;;3617007;39;20041;-58
2021/05/05 14:03:43;;;;;;;1.70;0.65;;;;;;;;;;3617552;39;20039;-57
2021/05/05 14:06:09;;;;;;;1.38;0.55;;;;;;;;;;3617558;39;20389;-58
2021/05/05 14:08:34;;;;;;;1.80;0.60;;;;;;;;;;3616595;39;20038;-59
2021/05/05 14:11:00;;;;;;;0.95;0.50;;;;;;;;;;3607730;39;20019;-59
2021/05/05 14:13:26;;;;;;;1.20;0.68;;;;;;;;;;3617259;39;20740;-59
2021/05/05 14:15:53;;;;;;;1.83;0.68;;;;;;;;;;3618077;39;20067;-59
2021/05/05 14:18:19;;;;;;;1.42;0.68;;;;;;;;;;3616368;39;20050;-57
2021/05/05 14:20:45;;;;;;;2.47;0.90;;;;;;;;;;3607452;39;20808;-59
2021/05/05 14:23:11;;;;;;;3.10;1.00;;;;;;;;;;3617519;39;20035;-58
2021/05/05 14:25:37;;;;;;;1.92;0.73;;;;;;;;;;3616968;39;20351;-57
2021/05/05 14:28:02;;;;;;;2.05;0.90;;;;;;;;;;3617413;39;20042;-58
2021/05/05 14:30:32;;;;;;;2.78;0.90;;;;;;;;;;3617243;39;20075;-56
2021/05/05 14:32:59;;;;;;;3.35;1.10;;;;;;;;;;3617229;39;20042;-58
2021/05/05 14:35:30;;;;;;;1.42;0.80;;;;;;;;;;3616869;39;20035;-57
2021/05/05 14:38:01;;;;;;;1.95;0.80;;;;;;;;;;3617278;39;20050;-57
2021/05/05 14:40:27;;;;;;;3.33;1.17;;;;;;;;;;3616536;39;20060;-59
2021/05/05 14:46:14;;;;;;;4.40;1.20;;;;;;;;;;3574742;40;20041;-58
2021/05/05 14:48:40;;;;;;;2.85;1.05;;;;;;;;;;3574831;40;20096;-59
2021/05/05 14:51:05;;;;;;;2.08;0.90;;;;;;;;;;3599647;39;20038;-59
2021/05/05 14:53:31;;;;;;;2.80;1.00;;;;;;;;;;3617471;39;20046;-59
2021/05/05 14:55:57;;;;;;;2.90;1.10;;;;;;;;;;3616499;39;20065;-59
2021/05/05 14:58:28;;;;;;;1.75;0.90;;;;;;;;;;3607148;39;20333;-59
2021/05/05 15:00:53;;;;;;;3.40;1.10;;;;;;;;;;3616093;39;20039;-60
2021/05/05 15:03:21;;;;;;;2.92;0.93;;;;;;;;;;3616494;39;20024;-60
2021/05/05 15:05:58;;;;;;;1.92;1.00;;;;;;;;;;3617068;39;20108;-59
2021/05/05 15:08:27;;;;;;;1.20;0.70;;;;;;;;;;3615403;39;20266;-60
2021/05/05 15:11:50;;;;;;;2.03;0.85;;;;;;;;;;3617045;39;20039;-59
2021/05/05 15:30:00;;;;;;;2.60;1.17;;;;;;;;;;3616813;39;20039;-59